Time;durP1;ratioP1;P1;durP2;ratioP2;P2;SDS_P1;SDS_P2;PMS_P1;PMS_P2;Temp;Humidity;BMP_temperature;BMP_pressure;BME280_temperature;BME280_humidity;BME280_pressure;Samples;Min_cycle;Max_cycle;Signal;HPM_P1;HPM_P2
2021/01/23 00:01:02;;;;;;;21.13;14.67;;;;;;;4.10;68.28;99616.91;6161301;28;20254;-64
2021/01/23 00:04:24;;;;;;;24.37;15.70;;;;;;;4.02;69.62;99616.91;6162173;28;20235;-63
2021/01/23 00:07:44;;;;;;;19.60;15.40;;;;;;;4.14;68.72;99609.16;6180567;28;20252;-64
2021/01/23 00:11:05;;;;;;;22.83;14.20;;;;;;;4.38;67.97;99609.09;6156736;28;20250;-63
2021/01/23 00:14:25;;;;;;;20.40;15.67;;;;;;;4.42;68.03;99603.94;6169505;28;20238;-64
2021/01/23 00:17:46;;;;;;;18.07;14.47;;;;;;;4.13;68.92;99599.72;6165735;28;20655;-64
2021/01/23 00:21:07;;;;;;;23.97;15.83;;;;;;;3.72;70.34;99605.78;6173778;28;20226;-64
2021/01/23 00:24:27;;;;;;;17.67;15.43;;;;;;;3.87;70.36;99599.75;6164948;28;20239;-64
2021/01/23 00:27:48;;;;;;;20.90;14.67;;;;;;;4.21;68.58;99588.53;6154056;28;20368;-64
2021/01/23 00:31:08;;;;;;;22.70;16.33;;;;;;;4.22;68.90;99588.53;6163318;28;20238;-64
2021/01/23 00:34:29;;;;;;;22.17;16.23;;;;;;;4.01;69.26;99592.00;6156787;28;20231;-64
2021/01/23 00:37:51;;;;;;;19.17;16.87;;;;;;;4.09;69.30;99592.88;6168457;28;20621;-64
2021/01/23 00:41:11;;;;;;;19.43;16.83;;;;;;;4.07;69.21;99586.88;6169236;28;20258;-64
2021/01/23 00:44:32;;;;;;;23.67;17.37;;;;;;;4.32;68.37;99591.94;6155962;28;20242;-63
2021/01/23 00:47:52;;;;;;;25.07;16.67;;;;;;;4.06;69.80;99592.00;6163597;28;20330;-64
2021/01/23 00:51:13;;;;;;;20.63;17.57;;;;;;;3.97;69.82;99587.72;6168054;28;20269;-64
2021/01/23 00:54:35;;;;;;;18.80;15.00;;;;;;;4.37;68.11;99597.94;6153956;28;20242;-64
2021/01/23 00:57:55;;;;;;;22.37;14.50;;;;;;;4.16;68.98;99604.00;6161078;28;20231;-64
2021/01/23 01:01:16;;;;;;;23.43;17.27;;;;;;;4.07;69.59;99606.59;6166759;28;20624;-64
2021/01/23 01:04:36;;;;;;;22.10;15.20;;;;;;;4.21;68.51;99604.84;6149024;28;20325;-64
2021/01/23 01:07:57;;;;;;;21.53;16.53;;;;;;;4.30;68.18;99610.00;6164977;28;20226;-64
2021/01/23 01:11:18;;;;;;;20.67;16.07;;;;;;;4.14;69.22;99604.00;6164548;28;20231;-64
2021/01/23 01:14:38;;;;;;;22.57;16.93;;;;;;;4.17;68.70;99607.44;6163662;28;20250;-64
2021/01/23 01:17:59;;;;;;;28.90;17.37;;;;;;;4.41;68.32;99602.22;6165584;28;20241;-64
2021/01/23 01:21:19;;;;;;;24.30;17.33;;;;;;;4.16;68.34;99600.56;6157305;28;20625;-64
2021/01/23 01:24:40;;;;;;;19.47;16.33;;;;;;;4.04;69.04;99602.31;6161270;28;20235;-64
2021/01/23 01:28:01;;;;;;;20.83;15.93;;;;;;;3.85;69.82;99605.78;6154858;28;20235;-64
2021/01/23 01:31:21;;;;;;;19.53;17.33;;;;;;;4.03;69.28;99595.47;6164379;28;20238;-65
2021/01/23 01:34:42;;;;;;;18.03;16.03;;;;;;;4.38;67.76;99591.06;6165419;28;20634;-63
2021/01/23 01:38:03;;;;;;;21.07;17.30;;;;;;;4.38;67.73;99594.50;6167800;28;20226;-64
2021/01/23 01:41:23;;;;;;;17.90;14.90;;;;;;;4.60;67.21;99587.53;6162184;28;20704;-64
2021/01/23 01:44:45;;;;;;;21.97;17.67;;;;;;;4.52;67.10;99592.72;6168264;28;20242;-63
2021/01/23 01:48:08;;;;;;;25.00;16.83;;;;;;;4.71;67.06;99590.03;6164285;28;20234;-63
2021/01/23 01:51:28;;;;;;;20.13;16.73;;;;;;;5.00;66.06;99597.66;6166677;28;20317;-64
2021/01/23 01:54:50;;;;;;;19.37;17.17;;;;;;;4.84;65.79;99602.03;6163726;28;20511;-64
2021/01/23 01:58:10;;;;;;;19.90;17.67;;;;;;;4.62;66.79;99592.69;6165803;28;20219;-64
2021/01/23 02:01:32;;;;;;;21.67;16.90;;;;;;;4.81;66.06;99602.06;6163678;28;20238;-64
2021/01/23 02:04:59;;;;;;;25.67;18.43;;;;;;;4.78;65.64;99602.06;6168566;28;20432;-64
2021/01/23 02:08:28;;;;;;;20.27;17.70;;;;;;;4.99;65.37;99595.09;6154627;28;20234;-64
2021/01/23 02:11:58;;;;;;;22.70;17.67;;;;;;;4.88;65.32;99601.13;6166186;28;20266;-64
2021/01/23 02:15:23;;;;;;;22.30;17.00;;;;;;;4.93;65.50;99596.81;6167231;28;20245;-64
2021/01/23 02:18:54;;;;;;;23.00;17.80;;;;;;;5.07;64.60;99606.22;6165616;28;20234;-64
2021/01/23 02:22:28;;;;;;;22.27;18.73;;;;;;;4.65;65.65;99608.13;6156255;28;20226;-64
2021/01/23 02:25:59;;;;;;;22.33;19.17;;;;;;;4.73;65.99;99602.09;6162940;28;20238;-63
2021/01/23 02:29:33;;;;;;;22.13;19.67;;;;;;;4.39;67.42;99598.78;6166361;28;20318;-63
2021/01/23 02:32:57;;;;;;;25.33;19.73;;;;;;;4.56;67.15;99603.03;6160476;28;20242;-64
2021/01/23 02:36:20;;;;;;;21.17;17.07;;;;;;;4.86;65.78;99600.28;6163066;28;20500;-65
2021/01/23 02:39:41;;;;;;;20.03;17.73;;;;;;;4.87;65.10;99609.75;6146315;28;20227;-64
2021/01/23 02:43:04;;;;;;;28.00;21.83;;;;;;;4.72;66.01;99609.84;6163536;28;20234;-64
2021/01/23 02:46:24;;;;;;;25.40;18.10;;;;;;;4.92;65.29;99610.59;6156712;28;20744;-64
2021/01/23 02:49:46;;;;;;;24.43;18.13;;;;;;;4.97;65.18;99607.13;6164051;28;20235;-64
2021/01/23 02:53:14;;;;;;;26.97;19.43;;;;;;;5.07;64.58;99612.22;6150933;28;20238;-64
2021/01/23 02:56:36;;;;;;;24.77;18.43;;;;;;;5.13;64.27;99614.75;6163651;28;20237;-64
2021/01/23 03:00:03;;;;;;;24.80;19.50;;;;;;;5.08;64.74;99618.25;6167014;28;20329;-64
2021/01/23 03:03:24;;;;;;;23.73;19.17;;;;;;;4.92;65.21;99620.94;6165578;28;20238;-64
2021/01/23 03:06:46;;;;;;;28.57;20.27;;;;;;;5.06;64.36;99620.84;6153613;28;20230;-64
2021/01/23 03:10:07;;;;;;;23.33;20.13;;;;;;;5.09;64.28;99622.53;6163571;28;20234;-64
2021/01/23 03:13:27;;;;;;;26.40;20.00;;;;;;;5.09;64.06;99627.69;6163821;28;20620;-65
2021/01/23 03:16:49;;;;;;;23.87;18.83;;;;;;;5.02;63.85;99621.72;6165340;28;20262;-64
2021/01/23 03:20:10;;;;;;;23.80;19.37;;;;;;;4.98;64.34;99625.16;6162826;28;20239;-64
2021/01/23 03:23:31;;;;;;;23.53;20.60;;;;;;;4.74;64.59;99621.84;6160935;28;20230;-64
2021/01/23 03:26:52;;;;;;;30.47;20.97;;;;;;;4.42;66.14;99614.25;6152279;28;20227;-63
2021/01/23 03:30:13;;;;;;;25.23;22.53;;;;;;;4.09;67.32;99628.94;6145541;28;20239;-63
2021/01/23 03:33:34;;;;;;;27.97;21.10;;;;;;;4.53;66.08;99612.47;6164240;28;20704;-64
2021/01/23 03:36:54;;;;;;;24.23;20.37;;;;;;;4.46;65.42;99620.22;6166336;28;20226;-64
2021/01/23 03:40:16;;;;;;;23.93;19.57;;;;;;;4.72;65.27;99627.88;6160103;28;20227;-64
2021/01/23 03:43:37;;;;;;;34.50;23.60;;;;;;;4.06;67.50;99625.50;6168589;28;20643;-64
2021/01/23 03:46:57;;;;;;;27.07;22.53;;;;;;;4.17;66.97;99617.72;6164557;28;20230;-63
2021/01/23 03:50:18;;;;;;;25.27;21.60;;;;;;;4.07;66.87;99628.09;6167271;28;20234;-64
2021/01/23 03:53:38;;;;;;;26.23;21.93;;;;;;;4.35;66.69;99615.13;6166083;28;20618;-64
2021/01/23 03:57:00;;;;;;;25.60;22.60;;;;;;;4.40;66.35;99618.56;6168207;28;20231;-64
2021/01/23 04:00:21;;;;;;;28.43;22.90;;;;;;;3.92;68.14;99616.06;6167679;28;20412;-64
2021/01/23 04:03:41;;;;;;;27.00;22.80;;;;;;;4.28;67.01;99613.41;6165359;28;20236;-64
2021/01/23 04:07:02;;;;;;;25.47;22.53;;;;;;;4.56;66.25;99616.78;6167690;28;21698;-63
2021/01/23 04:10:23;;;;;;;31.03;23.87;;;;;;;4.57;66.10;99617.63;6170570;28;20238;-63
2021/01/23 04:13:44;;;;;;;31.53;23.57;;;;;;;4.62;66.07;99610.75;6164659;28;20234;-64
2021/01/23 04:17:05;;;;;;;28.00;21.70;;;;;;;4.61;65.97;99611.59;6165418;28;20525;-65
2021/01/23 04:20:25;;;;;;;29.13;23.57;;;;;;;4.91;66.33;99611.44;6163631;28;20230;-64
2021/01/23 04:23:45;;;;;;;29.43;22.97;;;;;;;5.07;65.21;99608.78;6170780;28;21090;-65
2021/01/23 04:27:06;;;;;;;29.60;24.13;;;;;;;4.68;65.47;99608.13;6163685;28;20631;-64
2021/01/23 04:30:27;;;;;;;24.80;20.17;;;;;;;4.51;65.66;99603.88;6167401;28;20231;-64
2021/01/23 04:33:48;;;;;;;23.90;21.03;;;;;;;4.72;65.43;99612.41;6169518;28;20597;-63
2021/01/23 04:37:08;;;;;;;28.57;24.00;;;;;;;4.69;66.15;99608.13;6166248;28;20258;-64
2021/01/23 04:40:31;;;;;;;31.07;23.90;;;;;;;4.84;64.89;99611.50;6161422;28;20230;-65
2021/01/23 04:43:51;;;;;;;30.07;22.90;;;;;;;4.44;66.14;99609.94;6167466;28;20242;-65
2021/01/23 04:47:12;;;;;;;30.03;23.00;;;;;;;4.67;66.12;99609.88;6165017;28;20235;-64
2021/01/23 04:50:33;;;;;;;27.70;23.57;;;;;;;4.41;66.41;99606.53;6168818;28;20242;-64
2021/01/23 04:53:54;;;;;;;29.53;23.53;;;;;;;4.29;66.98;99612.56;6160902;28;20234;-64
2021/01/23 04:57:14;;;;;;;29.10;24.43;;;;;;;4.01;67.44;99616.91;6167571;28;20494;-64
2021/01/23 05:00:35;;;;;;;32.33;25.60;;;;;;;3.92;67.87;99618.66;6163929;28;20672;-64
2021/01/23 05:03:58;;;;;;;31.23;24.77;;;;;;;3.95;67.86;99615.19;6168540;28;20265;-64
2021/01/23 05:07:27;;;;;;;32.13;26.47;;;;;;;3.75;68.94;99617.81;6154664;28;20230;-64
2021/01/23 05:10:56;;;;;;;30.83;25.73;;;;;;;3.55;69.90;99613.50;6166954;28;20229;-64
2021/01/23 05:14:16;;;;;;;33.03;25.87;;;;;;;3.92;68.42;99612.66;6164774;28;20246;-64
2021/01/23 05:17:47;;;;;;;31.90;23.67;;;;;;;3.97;67.27;99605.75;6165444;28;20660;-64
2021/01/23 05:21:10;;;;;;;29.10;23.87;;;;;;;4.03;67.72;99599.72;6163761;28;20555;-64
2021/01/23 05:24:48;;;;;;;33.67;26.10;;;;;;;4.17;67.32;99597.13;6164528;28;20230;-64
2021/01/23 05:28:10;;;;;;;32.57;25.27;;;;;;;4.29;66.47;99599.69;6163841;28;20226;-64
2021/01/23 05:31:31;;;;;;;33.70;25.53;;;;;;;4.23;66.96;99602.28;6158422;28;20223;-64
2021/01/23 05:34:51;;;;;;;34.70;27.63;;;;;;;3.70;68.37;99604.94;6161105;28;20399;-64
2021/01/23 05:38:28;;;;;;;37.63;27.67;;;;;;;3.67;68.27;99610.06;6165781;28;20227;-64
2021/01/23 05:42:05;;;;;;;29.27;25.50;;;;;;;3.54;69.10;99610.94;6165031;28;20238;-64
2021/01/23 05:45:25;;;;;;;33.30;27.90;;;;;;;3.27;70.52;99611.78;6170023;28;20237;-64
2021/01/23 05:48:47;;;;;;;30.40;25.57;;;;;;;3.61;69.26;99612.66;6168323;28;20470;-64
2021/01/23 05:52:08;;;;;;;32.37;25.43;;;;;;;3.91;68.28;99608.34;6167402;28;20257;-64
2021/01/23 05:55:29;;;;;;;33.07;26.17;;;;;;;3.77;68.72;99613.50;6166827;28;20522;-64
2021/01/23 05:58:50;;;;;;;34.60;27.43;;;;;;;3.58;68.65;99612.66;6166617;28;20239;-64
2021/01/23 06:02:12;;;;;;;31.53;25.67;;;;;;;3.67;68.89;99615.22;6162908;28;20227;-63
2021/01/23 06:05:34;;;;;;;35.97;24.87;;;;;;;3.96;67.80;99601.47;6165984;28;20238;-63
2021/01/23 06:08:54;;;;;;;31.43;25.57;;;;;;;3.77;68.35;99607.50;6167318;28;20275;-64
2021/01/23 06:12:40;;;;;;;32.70;24.50;;;;;;;3.74;68.05;99604.06;6153040;28;20604;-64
2021/01/23 06:16:00;;;;;;;35.33;24.93;;;;;;;3.76;68.57;99609.19;6164078;28;20247;-65
2021/01/23 06:19:40;;;;;;;36.60;27.07;;;;;;;3.98;67.64;99597.19;6162924;28;20491;-64
2021/01/23 06:23:01;;;;;;;39.60;29.00;;;;;;;3.25;70.44;99609.19;6152570;28;20227;-64
2021/01/23 06:26:21;;;;;;;35.33;27.07;;;;;;;3.64;69.31;99611.78;6164268;28;20235;-65
2021/01/23 06:29:43;;;;;;;36.10;28.30;;;;;;;3.86;68.85;99612.66;6165900;28;20238;-65
2021/01/23 06:33:30;;;;;;;36.20;26.40;;;;;;;3.39;70.80;99616.06;6157308;28;20227;-64
2021/01/23 06:37:19;;;;;;;43.50;29.23;;;;;;;3.15;70.91;99628.06;6164379;28;20731;-64
2021/01/23 06:40:39;;;;;;;37.83;30.07;;;;;;;2.93;71.51;99628.00;6164057;28;20242;-64
2021/01/23 06:44:16;;;;;;;35.80;27.77;;;;;;;3.15;71.18;99628.91;6165193;28;20235;-64
2021/01/23 06:47:39;;;;;;;36.40;27.80;;;;;;;3.21;71.05;99632.34;6162558;28;20222;-64
2021/01/23 06:51:00;;;;;;;41.03;27.50;;;;;;;3.29;70.64;99634.06;6163945;28;20511;-65
2021/01/23 06:57:55;;;;;;;38.60;29.27;;;;;;;3.27;71.33;99638.34;6091019;28;20256;-64
2021/01/23 07:01:16;;;;;;;39.57;30.73;;;;;;;3.34;70.30;99647.81;6094192;28;20240;-65
2021/01/23 07:04:45;;;;;;;39.67;28.23;;;;;;;3.10;70.54;99640.91;6088267;28;20240;-64
2021/01/23 07:08:05;;;;;;;38.30;27.80;;;;;;;3.09;70.70;99643.47;6093754;29;20227;-64
2021/01/23 07:11:25;;;;;;;42.63;31.07;;;;;;;2.90;71.95;99648.56;6098505;29;20610;-64
2021/01/23 07:14:46;;;;;;;35.67;28.00;;;;;;;3.59;70.09;99646.97;6097695;29;20252;-64
2021/01/23 07:18:14;;;;;;;37.70;28.60;;;;;;;3.64;69.07;99640.13;6093710;29;20228;-64
2021/01/23 07:21:39;;;;;;;41.60;29.97;;;;;;;3.53;69.61;99650.41;6096452;29;20256;-64
2021/01/23 07:25:00;;;;;;;38.23;29.27;;;;;;;3.62;69.40;99642.69;6099309;29;20232;-64
2021/01/23 07:28:21;;;;;;;34.33;27.27;;;;;;;3.91;68.68;99639.25;6098210;29;20244;-63
2021/01/23 07:31:41;;;;;;;36.10;27.97;;;;;;;4.00;67.70;99639.25;6095562;29;20240;-64
2021/01/23 07:35:03;;;;;;;37.53;26.03;;;;;;;4.15;67.87;99635.81;6097898;29;20303;-64
2021/01/23 07:38:25;;;;;;;37.30;27.93;;;;;;;4.05;68.02;99634.06;6097508;29;20232;-64
2021/01/23 07:41:48;;;;;;;37.70;28.93;;;;;;;3.90;67.43;99632.41;6104477;28;20323;-64
2021/01/23 07:45:11;;;;;;;37.70;30.07;;;;;;;3.40;69.33;99633.25;6102538;28;20505;-64
2021/01/23 07:48:40;;;;;;;37.07;29.10;;;;;;;3.75;68.44;99625.53;6094920;29;20236;-64
2021/01/23 07:52:06;;;;;;;30.87;25.03;;;;;;;3.90;68.45;99628.09;6096867;29;20224;-64
2021/01/23 07:55:38;;;;;;;38.77;29.33;;;;;;;3.90;67.95;99622.94;6107770;29;20332;-64
2021/01/23 07:58:59;;;;;;;33.87;25.80;;;;;;;3.63;68.99;99615.25;6094517;28;20743;-64
2021/01/23 08:02:20;;;;;;;39.00;27.33;;;;;;;3.74;68.15;99616.06;6097263;29;20236;-64
2021/01/23 08:05:42;;;;;;;34.93;27.10;;;;;;;3.70;68.88;99609.22;6099522;28;20461;-64
2021/01/23 08:09:17;;;;;;;35.73;26.40;;;;;;;3.86;68.10;99607.50;6102488;29;20236;-64
2021/01/23 08:12:40;;;;;;;43.20;30.23;;;;;;;3.45;69.31;99600.63;6083249;29;20304;-64
2021/01/23 08:16:10;;;;;;;37.17;27.73;;;;;;;3.73;69.20;99597.19;6093429;28;20595;-64
2021/01/23 08:19:30;;;;;;;38.70;28.80;;;;;;;3.94;68.02;99577.44;6093181;29;20323;-64
2021/01/23 08:23:09;;;;;;;37.10;26.27;;;;;;;4.06;67.38;99569.66;6097494;29;20248;-65
2021/01/23 08:26:37;;;;;;;32.70;25.73;;;;;;;4.20;67.12;99576.50;6110353;29;20252;-64
2021/01/23 08:30:00;;;;;;;42.60;28.60;;;;;;;4.42;65.81;99575.59;6096170;29;20431;-64
2021/01/23 08:33:20;;;;;;;30.90;25.83;;;;;;;4.33;66.27;99580.75;6095413;29;20257;-64
2021/01/23 08:36:41;;;;;;;36.23;26.83;;;;;;;4.24;65.79;99567.91;6095917;29;20268;-66
2021/01/23 08:40:01;;;;;;;40.87;28.17;;;;;;;4.33;66.89;99562.72;6120312;28;20244;-64
2021/01/23 08:43:22;;;;;;;37.70;29.20;;;;;;;4.28;66.30;99561.88;6087922;29;20236;-64
2021/01/23 08:46:44;;;;;;;36.23;27.67;;;;;;;4.09;66.78;99569.69;6095185;29;21265;-65
2021/01/23 08:50:05;;;;;;;34.60;27.10;;;;;;;4.08;67.74;99567.94;6100392;29;20241;-64
2021/01/23 08:53:26;;;;;;;40.77;30.23;;;;;;;3.25;69.37;99568.03;6099561;28;20232;-64
2021/01/23 08:56:46;;;;;;;38.20;28.50;;;;;;;3.64;69.65;99565.44;6092398;28;20324;-64
2021/01/23 09:00:09;;;;;;;41.07;27.43;;;;;;;4.23;67.72;99567.06;6101021;28;20224;-64
2021/01/23 09:03:31;;;;;;;37.77;29.07;;;;;;;4.12;68.23;99563.66;6095645;29;20236;-64
2021/01/23 09:06:52;;;;;;;35.67;27.20;;;;;;;3.96;67.83;99578.28;6095165;29;20241;-64
2021/01/23 09:10:13;;;;;;;38.30;27.30;;;;;;;3.67;68.30;99592.06;6104146;29;20229;-64
2021/01/23 09:13:34;;;;;;;35.77;26.07;;;;;;;3.51;69.51;99592.94;6095797;29;20228;-64
2021/01/23 09:16:54;;;;;;;40.43;28.90;;;;;;;3.83;68.33;99592.91;6100763;29;20256;-65
2021/01/23 09:20:15;;;;;;;37.37;26.37;;;;;;;3.80;68.89;99613.53;6090085;28;20575;-65
2021/01/23 09:23:36;;;;;;;39.87;29.27;;;;;;;3.90;68.32;99624.66;6098886;29;20319;-63
2021/01/23 09:26:56;;;;;;;37.10;29.50;;;;;;;4.00;68.26;99623.78;6096425;29;20236;-65
2021/01/23 09:30:17;;;;;;;38.03;27.80;;;;;;;3.48;69.30;99613.50;6094576;29;20220;-65
2021/01/23 09:33:38;;;;;;;32.73;26.87;;;;;;;3.88;68.42;99608.38;6096982;29;20239;-64
2021/01/23 09:37:01;;;;;;;38.03;29.10;;;;;;;4.14;67.42;99604.00;6094501;29;20232;-64
2021/01/23 09:40:21;;;;;;;37.43;26.93;;;;;;;4.35;67.02;99599.66;6097720;28;20326;-65
2021/01/23 09:43:42;;;;;;;38.73;28.90;;;;;;;4.17;67.25;99604.84;6094403;29;20236;-64
2021/01/23 09:47:02;;;;;;;32.47;26.73;;;;;;;4.36;66.59;99595.34;6096897;28;20260;-65
2021/01/23 09:50:22;;;;;;;36.87;31.43;;;;;;;4.04;67.49;99598.88;6099046;28;20609;-64
2021/01/23 09:53:44;;;;;;;33.00;25.77;;;;;;;4.69;65.77;99602.09;6086315;29;20225;-64
2021/01/23 09:57:05;;;;;;;39.20;27.87;;;;;;;5.22;64.55;99603.53;6097954;28;20235;-64
2021/01/23 10:00:25;;;;;;;34.47;27.83;;;;;;;4.87;65.00;99612.34;6095108;28;20228;-64
2021/01/23 10:03:46;;;;;;;32.90;26.27;;;;;;;5.00;65.18;99613.16;6094129;28;20236;-64
2021/01/23 10:07:06;;;;;;;37.03;26.57;;;;;;;5.25;64.35;99600.06;6088530;29;20248;-64
2021/01/23 10:10:28;;;;;;;37.40;27.20;;;;;;;5.33;63.70;99608.59;6089836;29;20626;-64
2021/01/23 10:13:49;;;;;;;34.90;27.10;;;;;;;4.80;65.81;99607.22;6089363;29;20232;-65
2021/01/23 10:17:09;;;;;;;34.37;26.77;;;;;;;4.99;65.72;99600.25;6096080;28;20229;-65
2021/01/23 10:20:30;;;;;;;33.27;28.17;;;;;;;5.49;63.79;99596.47;6097727;28;20235;-65
2021/01/23 10:23:50;;;;;;;34.80;26.87;;;;;;;6.12;62.07;99598.50;6092859;29;20260;-63
2021/01/23 10:27:12;;;;;;;33.63;25.13;;;;;;;5.70;62.67;99603.19;6094299;28;20240;-63
2021/01/23 10:30:32;;;;;;;40.80;30.77;;;;;;;4.79;64.59;99598.63;6093373;29;20224;-63
2021/01/23 10:33:53;;;;;;;31.77;26.83;;;;;;;4.84;64.89;99596.00;6094312;29;20248;-62
2021/01/23 10:37:13;;;;;;;41.60;29.73;;;;;;;5.41;63.54;99595.63;6094218;29;20228;-63
2021/01/23 10:40:34;;;;;;;34.47;27.07;;;;;;;6.01;62.00;99579.66;6095503;28;20236;-63
2021/01/23 10:43:56;;;;;;;34.10;26.60;;;;;;;6.58;60.03;99582.47;6092907;29;20240;-63
2021/01/23 10:47:16;;;;;;;31.27;27.40;;;;;;;5.73;62.58;99583.31;6109413;28;20251;-61
2021/01/23 10:50:37;;;;;;;35.80;28.03;;;;;;;5.52;63.46;99575.75;6101034;28;20228;-63
2021/01/23 10:53:57;;;;;;;32.27;27.03;;;;;;;5.49;63.26;99586.13;6102326;28;20510;-62
2021/01/23 10:57:18;;;;;;;38.17;28.43;;;;;;;5.94;62.03;99578.84;6097190;29;20554;-62
2021/01/23 11:00:39;;;;;;;36.23;27.60;;;;;;;5.95;62.24;99572.81;6098884;28;20244;-62
2021/01/23 11:03:59;;;;;;;39.10;30.23;;;;;;;6.17;60.84;99562.28;6103260;28;20511;-63
2021/01/23 11:07:20;;;;;;;34.83;26.53;;;;;;;6.97;59.11;99559.50;6095961;28;20232;-63
2021/01/23 11:10:40;;;;;;;29.77;25.63;;;;;;;6.72;59.49;99547.81;6099138;28;20233;-63
2021/01/23 11:14:01;;;;;;;32.20;26.07;;;;;;;6.36;60.79;99544.78;6097995;28;20252;-63
2021/01/23 11:17:23;;;;;;;34.13;26.57;;;;;;;6.59;60.23;99536.75;6103874;29;20260;-63
2021/01/23 11:20:43;;;;;;;39.90;28.97;;;;;;;6.14;61.41;99533.88;6098523;29;20610;-63
2021/01/23 11:24:04;;;;;;;30.47;26.77;;;;;;;6.64;59.83;99535.81;6097114;29;20229;-64
2021/01/23 11:27:24;;;;;;;32.97;25.63;;;;;;;6.68;59.39;99521.09;6096208;29;20252;-63
2021/01/23 11:30:45;;;;;;;31.90;25.23;;;;;;;7.51;57.18;99508.63;6103592;28;20220;-63
2021/01/23 11:34:06;;;;;;;31.83;24.77;;;;;;;6.10;60.39;99508.03;6099166;28;20236;-62
2021/01/23 11:37:26;;;;;;;30.77;25.33;;;;;;;7.28;56.97;99508.09;6099269;28;20232;-62
2021/01/23 11:40:47;;;;;;;31.33;24.57;;;;;;;7.29;56.57;99511.56;6101839;29;20256;-62
2021/01/23 11:44:07;;;;;;;28.93;24.07;;;;;;;7.12;57.89;99506.66;6097245;29;20323;-62
2021/01/23 11:47:27;;;;;;;32.50;25.13;;;;;;;7.09;57.65;99502.41;6094670;29;20633;-63
2021/01/23 11:50:49;;;;;;;29.53;25.00;;;;;;;6.56;59.39;99500.59;6094999;28;23170;-63
2021/01/23 11:54:10;;;;;;;31.33;24.03;;;;;;;6.75;58.71;99490.84;6096501;29;20553;-63
2021/01/23 11:57:30;;;;;;;30.80;23.23;;;;;;;6.62;59.50;99491.00;6094600;29;20240;-63
2021/01/23 12:00:51;;;;;;;35.03;26.03;;;;;;;6.83;58.49;99489.00;6097691;29;20244;-63
2021/01/23 12:04:11;;;;;;;30.03;23.17;;;;;;;6.79;58.75;99487.34;6088046;29;20369;-63
2021/01/23 12:07:33;;;;;;;29.27;22.90;;;;;;;6.75;59.10;99476.16;6094209;29;20252;-64
2021/01/23 12:10:53;;;;;;;31.43;25.73;;;;;;;6.66;59.60;99476.28;6096372;29;20521;-64
2021/01/23 12:14:14;;;;;;;33.43;24.20;;;;;;;6.70;59.52;99472.78;6095258;29;20734;-63
2021/01/23 12:17:35;;;;;;;29.93;24.47;;;;;;;6.84;59.15;99465.69;6094319;29;20228;-62
2021/01/23 12:20:55;;;;;;;29.17;25.10;;;;;;;6.83;59.13;99469.13;6106031;28;20225;-64
2021/01/23 12:24:17;;;;;;;29.33;24.03;;;;;;;6.79;59.47;99472.66;6091664;29;20263;-63
2021/01/23 12:27:38;;;;;;;29.70;24.33;;;;;;;6.20;61.75;99469.16;6091841;28;20248;-67
2021/01/23 12:30:59;;;;;;;30.33;24.30;;;;;;;6.46;60.94;99463.66;6094420;28;20228;-62
2021/01/23 12:34:19;;;;;;;30.57;22.50;;;;;;;6.28;61.32;99470.78;6091938;29;20248;-62
2021/01/23 12:37:41;;;;;;;31.20;24.10;;;;;;;6.63;60.48;99458.22;6091972;29;20630;-63
2021/01/23 12:41:03;;;;;;;27.57;22.47;;;;;;;6.40;60.46;99459.41;6088945;28;20255;-62
2021/01/23 12:44:24;;;;;;;29.67;22.03;;;;;;;6.52;60.83;99442.03;6092267;29;20239;-62
2021/01/23 12:47:45;;;;;;;29.37;23.60;;;;;;;7.06;59.27;99431.69;6087371;29;20240;-61
2021/01/23 12:51:05;;;;;;;29.30;20.17;;;;;;;6.84;59.46;99437.22;6090782;29;20236;-62
2021/01/23 12:54:26;;;;;;;26.37;20.23;;;;;;;6.74;59.49;99433.03;6097669;29;20260;-62
2021/01/23 12:57:47;;;;;;;24.17;18.57;;;;;;;6.97;59.30;99434.41;6091143;29;20267;-61
2021/01/23 13:01:07;;;;;;;23.40;18.70;;;;;;;7.15;58.75;99421.16;6091064;28;20241;-66
2021/01/23 13:04:27;;;;;;;23.37;19.27;;;;;;;7.37;58.00;99418.22;6101936;28;20232;-61
2021/01/23 13:07:48;;;;;;;24.23;18.27;;;;;;;7.19;58.10;99417.66;6090781;29;20244;-61
2021/01/23 13:11:08;;;;;;;27.53;18.27;;;;;;;7.44;57.81;99417.19;6090837;28;20248;-62
2021/01/23 13:14:30;;;;;;;20.10;15.67;;;;;;;7.49;57.13;99423.16;6089055;29;20236;-61
2021/01/23 13:17:50;;;;;;;20.87;16.20;;;;;;;7.66;57.09;99410.72;6092361;29;20240;-61
2021/01/23 13:21:11;;;;;;;19.77;15.53;;;;;;;7.84;56.65;99416.44;6089958;29;20240;-61
2021/01/23 13:24:32;;;;;;;20.20;16.23;;;;;;;7.82;56.52;99415.63;6082242;29;20251;-62
2021/01/23 13:27:52;;;;;;;15.70;11.17;;;;;;;7.62;55.64;99410.84;6093009;29;20236;-61
2021/01/23 13:31:13;;;;;;;17.30;10.73;;;;;;;6.90;57.52;99412.94;6088102;29;20599;-61
2021/01/23 13:34:35;;;;;;;11.23;9.07;;;;;;;6.86;58.10;99396.66;6092765;29;20239;-61
2021/01/23 13:37:55;;;;;;;14.97;9.13;;;;;;;6.69;57.80;99409.84;6095061;29;20236;-61
2021/01/23 13:41:15;;;;;;;10.50;8.77;;;;;;;6.17;59.63;99409.75;6096035;28;20232;-61
2021/01/23 13:44:36;;;;;;;9.97;8.20;;;;;;;7.04;57.13;99399.81;6090436;29;20601;-60
2021/01/23 13:47:57;;;;;;;8.07;6.80;;;;;;;6.55;58.01;99416.09;6097280;29;20244;-62
2021/01/23 13:51:18;;;;;;;12.33;7.40;;;;;;;6.97;57.48;99387.84;6086721;29;20248;-61
2021/01/23 13:54:38;;;;;;;9.80;7.87;;;;;;;6.59;57.55;99405.69;6089225;29;20673;-61
2021/01/23 13:57:59;;;;;;;17.77;9.77;;;;;;;6.76;57.40;99402.81;6088888;29;20548;-62
2021/01/23 14:01:19;;;;;;;10.03;7.17;;;;;;;7.55;55.90;99397.13;6087634;29;21054;-61
2021/01/23 14:04:41;;;;;;;9.80;8.03;;;;;;;6.38;59.01;99399.09;6090262;29;20559;-61
2021/01/23 14:08:01;;;;;;;11.47;7.70;;;;;;;6.93;57.33;99393.94;6087505;29;20546;-61
2021/01/23 14:11:22;;;;;;;14.13;9.00;;;;;;;6.40;58.62;99410.28;6090367;29;20237;-61
2021/01/23 14:14:42;;;;;;;10.80;7.90;;;;;;;6.30;58.22;99406.09;6088594;29;20239;-60
2021/01/23 14:18:03;;;;;;;9.90;7.47;;;;;;;6.56;57.69;99404.88;6089048;29;20601;-60
2021/01/23 14:21:24;;;;;;;9.80;8.00;;;;;;;6.74;57.91;99407.16;6092281;29;20323;-60
2021/01/23 14:24:45;;;;;;;13.93;8.40;;;;;;;6.59;57.72;99412.59;6095953;28;20240;-61
2021/01/23 14:28:05;;;;;;;8.70;7.20;;;;;;;6.11;59.11;99411.53;6094899;29;20366;-61
2021/01/23 14:31:26;;;;;;;12.40;8.80;;;;;;;6.41;58.14;99408.53;6089096;29;20669;-62
2021/01/23 14:34:47;;;;;;;8.33;7.43;;;;;;;6.15;58.88;99416.69;6089618;29;20249;-62
2021/01/23 14:38:08;;;;;;;9.60;8.07;;;;;;;6.46;58.18;99407.59;6093534;28;20232;-62
2021/01/23 14:41:28;;;;;;;13.40;8.10;;;;;;;6.73;57.90;99413.25;6096831;29;20248;-62
2021/01/23 14:44:49;;;;;;;11.37;8.30;;;;;;;6.51;58.19;99420.44;6092888;29;20588;-61
2021/01/23 14:48:09;;;;;;;13.60;10.33;;;;;;;6.21;59.32;99430.38;6088972;29;20236;-61
2021/01/23 14:51:30;;;;;;;13.23;8.30;;;;;;;6.78;58.39;99420.91;6093663;28;20237;-60
2021/01/23 14:54:51;;;;;;;280.30;42.30;;;;;;;6.83;61.52;99404.44;6089647;29;20232;-70
2021/01/23 14:58:12;;;;;;;9.87;8.83;;;;;;;6.74;59.65;99417.53;6091796;28;20239;-66
2021/01/23 15:01:32;;;;;;;9.97;7.20;;;;;;;6.74;58.51;99414.94;6087574;29;20523;-68
2021/01/23 15:04:53;;;;;;;11.23;8.30;;;;;;;6.84;58.25;99411.34;6098381;29;20606;-69
2021/01/23 15:08:13;;;;;;;8.40;7.50;;;;;;;6.83;58.19;99407.03;6090785;29;20239;-70
2021/01/23 15:11:34;;;;;;;12.03;7.37;;;;;;;6.38;59.53;99413.75;6091589;29;20534;-67
2021/01/23 15:14:55;;;;;;;12.77;8.70;;;;;;;6.41;59.51;99409.38;6087527;29;20661;-71
2021/01/23 15:18:16;;;;;;;11.53;8.73;;;;;;;6.27;59.67;99419.09;6100066;29;20232;-71
2021/01/23 15:21:36;;;;;;;13.17;8.93;;;;;;;6.25;60.35;99423.44;6075858;29;20236;-72
2021/01/23 15:24:56;;;;;;;10.13;8.47;;;;;;;6.32;59.50;99430.22;6083256;28;20323;-71
2021/01/23 15:28:17;;;;;;;12.13;8.30;;;;;;;6.55;59.42;99423.84;6089499;29;20273;-73
2021/01/23 15:31:38;;;;;;;12.37;8.63;;;;;;;6.25;60.23;99423.44;6081982;29;20557;-73
2021/01/23 15:34:59;;;;;;;10.83;8.17;;;;;;;6.16;60.78;99421.81;6093793;29;20496;-73
2021/01/23 15:38:19;;;;;;;11.40;8.27;;;;;;;6.37;60.24;99412.91;6094216;29;20229;-72
2021/01/23 15:41:40;;;;;;;8.93;7.23;;;;;;;6.08;61.13;99421.91;6103705;28;20236;-72
2021/01/23 15:45:01;;;;;;;10.63;7.77;;;;;;;6.70;59.39;99415.88;6094093;29;20644;-72